createdAt,value
2019-04-05T00:00:58.799Z,49.15
2019-04-05T00:02:39.465Z,48.20
2019-04-05T00:04:21.072Z,41.97
2019-04-05T00:06:02.640Z,47.13
2019-04-05T00:07:46.313Z,47.05
2019-04-05T00:09:26.934Z,55.35
2019-04-05T00:11:14.186Z,47.17
2019-04-05T00:12:57.464Z,47.25
2019-04-05T04:00:50.625Z,55.57
2019-04-05T04:02:29.224Z,58.60
2019-04-05T04:04:12.706Z,57.13
2019-04-05T04:05:52.173Z,52.40
2019-04-05T04:07:33.832Z,80.93
2019-04-05T04:09:15.432Z,130.70
2019-04-05T04:10:54.882Z,63.00
2019-04-05T04:12:36.320Z,56.33
2019-04-05T04:14:16.427Z,62.47
2019-04-05T04:15:55.956Z,59.80
2019-04-05T04:17:35.766Z,53.60
2019-04-05T04:19:16.381Z,55.90
2019-04-05T04:24:25.184Z,57.10
2019-04-05T04:27:47.432Z,54.10
2019-04-05T04:29:29.795Z,116.50
2019-04-05T04:31:08.902Z,327.70
2019-04-05T04:32:49.005Z,323.05
2019-04-05T04:34:37.365Z,297.50
2019-04-05T04:36:16.460Z,222.00
2019-04-05T04:37:56.946Z,154.20
2019-04-05T04:39:35.748Z,168.32
2019-04-05T04:41:17.224Z,59.55
2019-04-05T04:42:56.524Z,55.43
2019-04-05T04:44:35.981Z,59.88
2019-04-05T04:46:16.290Z,52.58
2019-04-05T04:47:53.453Z,63.92
2019-04-05T04:49:31.263Z,76.72
2019-04-05T04:51:10.179Z,65.60
2019-04-05T04:52:51.338Z,47.60
2019-04-05T04:54:32.432Z,50.17
2019-04-05T04:56:10.926Z,54.18
2019-04-05T04:57:48.557Z,57.13
2019-04-05T04:59:28.025Z,49.45
2019-04-05T05:01:10.168Z,54.45
2019-04-05T05:02:49.649Z,53.80
2019-04-05T05:04:27.503Z,64.65
2019-04-05T05:06:06.528Z,80.85
2019-04-05T05:07:48.107Z,95.28
2019-04-05T05:09:28.142Z,137.47
2019-04-05T05:11:14.332Z,119.22
2019-04-05T05:12:47.921Z,141.03
2019-04-05T05:14:27.413Z,98.82
2019-04-05T05:16:06.995Z,116.22
2019-04-05T05:17:57.713Z,110.48
2019-04-05T05:19:24.231Z,97.50
2019-04-05T05:21:04.057Z,60.98
2019-04-05T05:22:43.883Z,62.23
2019-04-05T05:24:23.005Z,65.60
2019-04-05T05:26:01.118Z,59.20
2019-04-05T05:27:38.606Z,62.98
2019-04-05T05:29:16.567Z,70.57
2019-04-05T05:30:57.053Z,65.75
2019-04-05T05:32:35.630Z,55.80
2019-04-05T05:34:14.690Z,58.80
2019-04-05T05:35:54.579Z,66.55
2019-04-05T05:37:32.992Z,71.25
2019-04-05T05:39:12.890Z,57.30
2019-04-05T05:40:56.971Z,53.65
2019-04-05T05:42:34.817Z,54.35
2019-04-05T05:44:13.378Z,59.70
2019-04-05T05:45:51.211Z,73.12
2019-04-05T05:47:29.459Z,59.85
2019-04-05T05:49:06.756Z,62.17
2019-04-05T05:50:46.373Z,58.45
2019-04-05T05:52:28.441Z,54.40
2019-04-05T05:54:07.238Z,65.12
2019-04-05T05:55:45.831Z,59.58
2019-04-05T05:57:24.255Z,77.17
2019-04-05T05:59:04.802Z,65.80
2019-04-05T06:00:44.648Z,66.30
2019-04-05T06:02:24.462Z,74.42
2019-04-05T06:04:03.454Z,57.13
2019-04-05T06:05:42.254Z,59.55
2019-04-05T06:07:26.023Z,62.23
2019-04-05T06:09:05.436Z,50.38
2019-04-05T06:10:45.680Z,49.63
2019-04-05T06:12:22.873Z,50.88
2019-04-05T06:14:03.878Z,59.03
2019-04-05T06:15:41.719Z,54.30
2019-04-05T06:17:22.864Z,43.90
2019-04-05T06:19:00.320Z,54.30
2019-04-05T06:20:38.644Z,48.00
2019-04-05T06:22:17.882Z,54.23
2019-04-05T06:23:55.972Z,47.80
2019-04-05T06:25:34.460Z,59.23
2019-04-05T06:27:14.105Z,46.70
2019-04-05T06:28:52.118Z,48.02
2019-04-05T06:30:32.630Z,52.25
2019-04-05T06:32:11.283Z,47.30
2019-04-05T06:33:51.793Z,44.18
2019-04-05T06:35:30.165Z,49.88
2019-04-05T06:37:09.701Z,47.15
2019-04-05T06:38:49.869Z,39.50
2019-04-05T06:40:40.017Z,42.13
2019-04-05T06:42:09.562Z,41.10
2019-04-05T06:43:51.621Z,35.48
2019-04-05T06:45:30.882Z,42.33
2019-04-05T06:47:09.137Z,36.00
2019-04-05T06:48:49.168Z,47.35
2019-04-05T06:50:26.982Z,36.05
2019-04-05T06:52:05.173Z,39.85
2019-04-05T06:53:46.063Z,33.55
2019-04-05T06:55:24.576Z,33.48
2019-04-05T06:57:02.932Z,32.38
2019-04-05T06:58:41.697Z,33.55
2019-04-05T07:00:22.192Z,36.35
2019-04-05T07:02:04.633Z,37.42
2019-04-05T07:03:44.057Z,38.20
2019-04-05T07:05:22.819Z,37.78
2019-04-05T07:07:01.689Z,31.62
2019-04-05T07:08:39.327Z,32.13
2019-04-05T07:10:18.144Z,30.77
2019-04-05T07:11:55.343Z,33.65
2019-04-05T07:13:33.653Z,32.00
2019-04-05T07:15:11.032Z,33.67
2019-04-05T07:17:00.812Z,32.25
2019-04-05T07:18:40.145Z,30.92
2019-04-05T07:20:17.838Z,29.45
2019-04-05T07:21:56.758Z,28.55
2019-04-05T07:23:36.054Z,21.73
2019-04-05T07:25:13.985Z,24.05
2019-04-05T07:26:53.731Z,26.62
2019-04-05T07:28:33.645Z,23.47
2019-04-05T07:30:17.475Z,25.12
2019-04-05T07:31:57.564Z,27.80
2019-04-05T07:33:35.757Z,22.73
2019-04-05T07:35:14.777Z,26.57
2019-04-05T07:36:58.186Z,24.65
2019-04-05T07:38:39.921Z,22.80
2019-04-05T07:40:22.207Z,29.90
2019-04-05T07:42:02.763Z,35.75
2019-04-05T07:43:46.953Z,25.17
2019-04-05T07:45:26.477Z,26.55
2019-04-05T07:47:08.306Z,25.02
2019-04-05T07:49:01.292Z,22.82
2019-04-05T07:50:42.910Z,33.13
2019-04-05T07:52:21.327Z,35.68
2019-04-05T07:54:00.100Z,109.15
2019-04-05T07:55:39.568Z,48.20
2019-04-05T07:57:18.214Z,88.33
2019-04-05T07:59:13.964Z,39.95
2019-04-05T08:00:57.453Z,23.85
2019-04-05T08:04:18.117Z,20.27
2019-04-05T08:05:57.541Z,20.60
2019-04-05T08:07:43.303Z,18.73
2019-04-05T08:09:24.494Z,20.72
2019-04-05T08:11:02.568Z,20.02
2019-04-05T08:12:46.541Z,19.87
2019-04-05T08:14:28.452Z,20.15
2019-04-05T08:16:08.332Z,20.47
2019-04-05T08:17:47.351Z,19.02
2019-04-05T08:19:27.591Z,18.70
2019-04-05T08:21:12.482Z,19.42
2019-04-05T08:22:50.430Z,19.00
2019-04-05T08:24:30.648Z,15.83
2019-04-05T08:26:11.001Z,20.43
2019-04-05T08:27:49.618Z,16.85
2019-04-05T08:29:29.245Z,15.63
2019-04-05T08:31:10.884Z,12.85
2019-04-05T08:32:51.801Z,12.70
2019-04-05T08:34:32.383Z,19.62
2019-04-05T08:36:11.748Z,14.65
2019-04-05T08:37:50.300Z,94.55
2019-04-05T08:39:29.463Z,23.27
2019-04-05T08:41:06.741Z,19.30
2019-04-05T08:42:47.503Z,14.28
2019-04-05T08:44:26.761Z,14.07
2019-04-05T08:46:07.721Z,15.35
2019-04-05T08:47:46.453Z,20.80
2019-04-05T08:49:26.034Z,19.07
2019-04-05T08:51:04.671Z,18.85
2019-04-05T08:52:45.291Z,23.75
2019-04-05T08:54:32.447Z,21.87
2019-04-05T08:56:07.255Z,15.85
2019-04-05T08:57:49.301Z,15.78
2019-04-05T08:59:31.456Z,17.50
2019-04-05T09:01:14.994Z,18.75
2019-04-05T09:02:58.880Z,18.98
2019-04-05T09:04:36.744Z,12.80
2019-04-05T09:06:19.047Z,15.28
2019-04-05T09:08:00.067Z,19.80
2019-04-05T09:09:49.160Z,16.20
2019-04-05T09:11:30.059Z,24.12
2019-04-05T09:13:07.824Z,19.98
2019-04-05T09:14:46.629Z,14.35
2019-04-05T09:16:25.692Z,16.73
2019-04-05T09:18:07.401Z,16.00
2019-04-05T09:19:46.659Z,17.17
2019-04-05T09:21:25.722Z,17.73
2019-04-05T09:23:04.202Z,16.52
2019-04-05T09:24:45.730Z,13.62
2019-04-05T09:26:27.802Z,14.38
2019-04-05T09:28:09.242Z,14.40
2019-04-05T09:29:54.880Z,15.98
2019-04-05T09:31:37.751Z,24.43
2019-04-05T09:33:23.524Z,12.15
2019-04-05T09:35:02.018Z,14.68
2019-04-05T09:36:43.626Z,12.20
2019-04-05T09:38:22.580Z,14.87
2019-04-05T09:40:01.682Z,13.00
2019-04-05T09:41:41.329Z,14.28
2019-04-05T09:43:19.374Z,11.63
2019-04-05T09:44:59.730Z,14.43
2019-04-05T09:46:48.028Z,11.12
2019-04-05T09:50:23.044Z,13.38
2019-04-05T09:52:07.668Z,12.05
2019-04-05T09:53:59.485Z,12.43
2019-04-05T09:55:40.111Z,12.75
2019-04-05T09:57:19.823Z,12.90
2019-04-05T09:58:57.116Z,13.05
2019-04-05T10:00:36.470Z,12.93
2019-04-05T10:02:15.701Z,17.70
2019-04-05T10:03:54.049Z,12.55
2019-04-05T10:05:37.251Z,17.05
2019-04-05T10:07:17.984Z,13.43
2019-04-05T10:08:55.273Z,15.25
2019-04-05T10:10:34.228Z,14.07
2019-04-05T10:12:14.847Z,14.20
2019-04-05T10:13:54.839Z,12.70
2019-04-05T10:15:33.925Z,14.33
2019-04-05T10:17:14.304Z,12.25
2019-04-05T10:18:51.624Z,14.75
2019-04-05T10:20:32.583Z,15.50
2019-04-05T10:22:11.217Z,12.82
2019-04-05T10:23:49.406Z,13.78
2019-04-05T10:25:28.260Z,12.40
2019-04-05T10:27:10.302Z,13.35
2019-04-05T10:28:50.533Z,14.07
2019-04-05T10:30:35.258Z,12.03
2019-04-05T10:32:14.278Z,13.55
2019-04-05T10:33:55.650Z,12.40
2019-04-05T10:37:14.368Z,14.93
2019-04-05T10:38:54.331Z,16.07
2019-04-05T10:40:38.026Z,17.32
2019-04-05T10:42:35.858Z,18.35
2019-04-05T10:44:17.062Z,15.85
2019-04-05T10:46:00.899Z,22.32
2019-04-05T10:47:38.573Z,15.80
2019-04-05T10:49:18.540Z,16.37
2019-04-05T10:50:57.376Z,16.00
2019-04-05T10:52:35.396Z,21.20
2019-04-05T10:54:12.782Z,14.55
2019-04-05T17:57:19.239Z,75.52
2019-04-05T17:58:57.102Z,79.70
2019-04-05T18:00:37.329Z,72.05
2019-04-05T18:02:19.203Z,59.00
2019-04-05T18:04:00.524Z,79.75
2019-04-05T18:05:38.968Z,62.58
2019-04-05T18:07:20.787Z,49.35
2019-04-05T18:09:00.531Z,79.15
2019-04-05T18:10:39.997Z,50.17
2019-04-05T18:12:19.833Z,54.35
2019-04-05T18:14:02.871Z,39.27
2019-04-05T18:15:52.282Z,42.08
2019-04-05T18:17:31.932Z,50.70
2019-04-05T18:19:16.794Z,183.12
2019-04-05T18:20:59.141Z,284.32
2019-04-05T18:22:41.174Z,242.70
2019-04-05T18:24:21.890Z,207.62
2019-04-05T18:26:03.760Z,146.20
2019-04-05T18:27:45.602Z,97.97
2019-04-05T18:29:28.976Z,80.85
2019-04-05T18:31:12.081Z,56.20
2019-04-05T18:32:51.357Z,74.82
2019-04-05T18:34:30.416Z,96.05
2019-04-05T18:36:12.339Z,69.72
2019-04-05T18:37:50.007Z,72.40
2019-04-05T18:39:27.676Z,79.32
2019-04-05T18:41:07.956Z,59.93
2019-04-05T18:42:51.680Z,62.78
2019-04-05T18:44:33.556Z,56.18
2019-04-05T18:46:18.331Z,59.30
2019-04-05T18:48:00.534Z,46.50
2019-04-05T18:49:39.611Z,43.25
2019-04-05T18:51:22.462Z,42.43
2019-04-05T18:53:02.996Z,41.02
2019-04-05T18:54:46.291Z,55.40
2019-04-05T18:56:26.424Z,42.00
2019-04-05T18:58:09.969Z,41.53
2019-04-05T19:01:35.251Z,34.15
2019-04-05T19:03:15.219Z,41.18
2019-04-05T19:04:54.772Z,87.85
2019-04-05T19:06:35.250Z,35.05
2019-04-05T19:08:14.221Z,39.05
2019-04-05T19:09:56.519Z,37.70
2019-04-05T19:11:49.600Z,35.25
2019-04-05T19:13:33.742Z,35.58
2019-04-05T19:15:16.329Z,41.28
2019-04-05T19:16:55.101Z,42.73
2019-04-05T19:18:35.220Z,48.45
2019-04-05T19:20:21.439Z,51.18
2019-04-05T19:22:01.723Z,53.52
2019-04-05T19:23:50.219Z,32.48
2019-04-05T19:25:21.337Z,31.30
2019-04-05T19:27:03.020Z,36.80
2019-04-05T19:28:44.073Z,34.83
2019-04-05T19:49:45.300Z,123.62
2019-04-05T19:51:28.058Z,74.90
2019-04-05T19:53:13.067Z,77.95
2019-04-05T19:54:50.667Z,150.27
2019-04-05T19:56:29.785Z,60.15
2019-04-05T19:58:13.620Z,54.53
2019-04-05T19:59:52.426Z,54.73
2019-04-05T20:01:31.526Z,39.40
2019-04-05T20:03:11.667Z,45.80
2019-04-05T20:04:52.276Z,48.65
2019-04-05T20:06:32.720Z,60.12
2019-04-05T20:08:15.451Z,54.38
2019-04-05T20:09:54.530Z,55.30
2019-04-05T20:11:34.384Z,64.65
2019-04-05T20:13:14.018Z,66.80
2019-04-05T20:14:54.513Z,75.12
2019-04-05T20:16:32.750Z,83.07
2019-04-05T20:18:16.795Z,67.58
2019-04-05T20:20:00.206Z,60.85
2019-04-05T20:21:38.357Z,58.05
2019-04-05T20:23:19.890Z,63.52
2019-04-05T20:25:02.031Z,67.87
2019-04-05T20:26:45.515Z,64.82
2019-04-05T20:28:25.628Z,61.33
2019-04-05T20:30:04.308Z,51.23
2019-04-05T20:31:43.452Z,56.68
2019-04-05T20:33:23.917Z,56.95
2019-04-05T20:35:04.210Z,45.55
2019-04-05T20:36:44.906Z,51.90
2019-04-05T20:38:25.141Z,50.90
2019-04-05T20:40:03.257Z,70.87
2019-04-05T20:41:42.451Z,57.48
2019-04-05T20:43:25.356Z,59.27
2019-04-05T20:45:04.855Z,56.80
2019-04-05T20:46:44.634Z,51.77
2019-04-05T20:48:27.949Z,66.60
2019-04-05T20:50:08.073Z,49.13
2019-04-05T20:51:49.550Z,58.25
2019-04-05T20:53:29.668Z,60.65
2019-04-05T20:55:11.038Z,54.95
2019-04-05T20:56:50.829Z,56.02
2019-04-05T20:58:28.714Z,61.75
2019-04-05T21:00:10.440Z,60.98
2019-04-05T21:01:48.259Z,58.65
2019-04-05T21:03:28.437Z,139.00
2019-04-05T21:05:07.880Z,73.57
2019-04-05T21:06:46.540Z,72.55
2019-04-05T21:08:25.368Z,70.10
2019-04-05T21:10:07.103Z,74.35
2019-04-05T21:11:48.430Z,65.97
2019-04-05T21:13:26.345Z,89.58
2019-04-05T21:15:06.809Z,60.43
2019-04-05T21:16:44.434Z,68.80
2019-04-05T21:18:23.253Z,61.02
2019-04-05T21:20:01.880Z,80.87
2019-04-05T21:21:41.746Z,78.30
2019-04-05T21:23:27.727Z,78.57
2019-04-05T21:25:12.796Z,71.90
2019-04-05T21:28:29.652Z,80.50
2019-04-05T21:30:07.732Z,87.10
2019-04-05T21:31:46.640Z,73.05
2019-04-05T21:33:26.857Z,76.97
2019-04-05T21:35:07.862Z,84.28
2019-04-05T21:36:46.413Z,70.70
2019-04-05T21:38:26.835Z,78.40
2019-04-05T21:40:06.189Z,76.60
2019-04-05T21:41:45.510Z,70.70
2019-04-05T21:43:24.852Z,81.00
2019-04-05T21:45:03.351Z,78.67
2019-04-05T21:46:45.563Z,88.30
2019-04-05T21:48:25.903Z,91.60
2019-04-05T21:50:04.839Z,75.00
2019-04-05T21:51:44.569Z,76.67
2019-04-05T21:53:24.001Z,90.17
2019-04-05T21:55:02.862Z,81.87
2019-04-05T21:56:45.555Z,89.17
2019-04-05T21:58:27.708Z,80.72
2019-04-05T22:00:14.922Z,87.85
2019-04-05T22:01:55.795Z,85.17
2019-04-05T22:03:36.413Z,83.00
2019-04-05T22:05:15.632Z,90.97
2019-04-05T22:06:58.510Z,80.95
2019-04-05T22:08:36.380Z,85.45
2019-04-05T22:10:15.663Z,110.32
2019-04-05T22:11:55.729Z,115.03
2019-04-05T22:13:33.361Z,107.60
2019-04-05T22:15:13.952Z,129.82
2019-04-05T22:16:52.059Z,128.97
2019-04-05T22:18:30.162Z,119.37
2019-04-05T22:20:11.476Z,134.85
2019-04-05T22:21:50.290Z,119.97
2019-04-05T22:23:28.475Z,103.67
2019-04-05T22:25:08.681Z,137.97
2019-04-05T22:26:48.266Z,114.52
2019-04-05T22:28:26.413Z,114.52
2019-04-05T22:30:07.566Z,104.27
2019-04-05T22:31:46.867Z,109.35
2019-04-05T22:33:27.303Z,115.85
2019-04-05T22:35:05.868Z,108.63
2019-04-05T22:36:47.052Z,105.60
2019-04-05T22:38:25.285Z,107.52
2019-04-05T22:40:05.467Z,120.97
2019-04-05T22:41:44.848Z,119.62
2019-04-05T22:43:24.286Z,100.33
2019-04-05T22:45:04.489Z,113.20
2019-04-05T22:46:45.524Z,109.87
2019-04-05T22:48:23.599Z,105.45
2019-04-05T22:50:02.592Z,106.70
2019-04-05T22:51:42.523Z,107.58
2019-04-05T22:53:23.172Z,131.12
2019-04-05T22:55:10.462Z,130.27
2019-04-05T22:56:41.971Z,111.40
2019-04-05T22:58:22.123Z,111.83
2019-04-05T23:00:01.705Z,127.85
2019-04-05T23:01:41.806Z,130.87
2019-04-05T23:03:21.402Z,126.42
2019-04-05T23:05:01.040Z,134.90
2019-04-05T23:06:41.529Z,120.20
2019-04-05T23:08:22.714Z,132.52
2019-04-05T23:10:02.452Z,130.82
2019-04-05T23:11:43.082Z,127.50
2019-04-05T23:13:26.470Z,135.15
2019-04-05T23:15:08.032Z,139.47
2019-04-05T23:16:49.051Z,134.50
2019-04-05T23:18:29.327Z,113.32
2019-04-05T23:20:10.781Z,118.15
2019-04-05T23:21:50.277Z,106.07
2019-04-05T23:23:31.994Z,171.72
2019-04-05T23:25:21.454Z,137.97
2019-04-05T23:26:55.116Z,125.27
2019-04-05T23:28:35.835Z,89.03
2019-04-05T23:30:20.267Z,80.83
2019-04-05T23:32:00.252Z,300.18
2019-04-05T23:33:40.318Z,168.45
2019-04-05T23:35:21.316Z,166.97
2019-04-05T23:37:03.959Z,117.72
2019-04-05T23:38:45.016Z,119.17
2019-04-05T23:40:27.983Z,124.20
2019-04-05T23:42:06.010Z,117.90
2019-04-05T23:43:48.804Z,109.60
2019-04-05T23:45:30.382Z,117.35
2019-04-05T23:47:13.182Z,103.55
2019-04-05T23:48:54.549Z,119.08
2019-04-05T23:50:35.699Z,100.20
2019-04-05T23:52:15.186Z,105.95
2019-04-05T23:53:56.702Z,164.03
2019-04-05T23:55:38.681Z,106.37
2019-04-05T23:57:20.168Z,119.95
2019-04-05T23:59:01.476Z,134.22
